createdAt,value
2017-09-04T12:40:25.392Z,30.79
2017-09-04T12:40:29.476Z,30.75
2017-09-04T12:40:33.558Z,30.71
2017-09-04T12:40:37.650Z,30.67
2017-09-04T12:40:41.485Z,30.62
2017-09-04T12:40:45.570Z,30.59
2017-09-04T12:40:49.898Z,30.56
2017-09-04T12:40:54.089Z,30.51
2017-09-04T12:40:58.287Z,30.48
2017-09-04T12:41:02.787Z,30.44
2017-09-04T12:41:06.763Z,30.4
2017-09-04T12:41:10.848Z,30.36
2017-09-04T12:41:14.795Z,30.32
2017-09-04T12:41:18.753Z,30.3
2017-09-04T12:41:23.199Z,30.26
2017-09-04T12:41:27.289Z,30.21
2017-09-04T12:41:31.134Z,30.18
2017-09-04T12:41:35.241Z,30.15
2017-09-04T12:41:39.453Z,30.11
2017-09-04T12:41:43.441Z,30.09
2017-09-04T12:41:47.540Z,30.06
2017-09-04T12:41:51.741Z,30.07
2017-09-04T12:41:55.957Z,30.17
2017-09-04T12:41:59.940Z,30.26
2017-09-04T12:42:04.032Z,30.37
2017-09-04T12:42:08.115Z,30.48
2017-09-04T12:42:12.320Z,30.58
2017-09-04T12:42:16.541Z,30.71
2017-09-04T12:42:20.749Z,30.7
2017-09-04T12:42:24.834Z,30.65
2017-09-04T12:42:28.786Z,30.61
2017-09-04T12:42:32.997Z,30.62
2017-09-04T12:42:37.085Z,30.66
2017-09-04T12:42:41.038Z,30.67
2017-09-04T12:42:45.128Z,30.64
2017-09-04T12:42:49.220Z,30.62
2017-09-04T12:42:53.169Z,30.61
2017-09-04T12:42:56.994Z,30.64
2017-09-04T12:43:01.319Z,30.76
2017-09-04T12:43:05.820Z,30.92
2017-09-04T12:43:10.044Z,31.09
2017-09-04T12:43:14.002Z,31.26
2017-09-04T12:43:17.960Z,31.42
2017-09-04T12:43:22.296Z,31.59
2017-09-04T12:43:26.507Z,31.75
2017-09-04T12:43:30.580Z,31.9
2017-09-04T12:43:34.661Z,32.05
2017-09-04T12:43:38.763Z,32.19
2017-09-04T12:43:43.098Z,32.33
2017-09-04T12:43:47.436Z,32.48
2017-09-04T12:43:51.540Z,32.59
2017-09-04T12:43:55.758Z,32.7
2017-09-04T12:44:00.094Z,32.74
2017-09-04T12:44:04.558Z,32.7
2017-09-04T12:44:08.912Z,32.65
2017-09-04T12:44:12.998Z,32.55
2017-09-04T12:44:17.336Z,32.45
2017-09-04T12:44:21.539Z,32.37
2017-09-04T12:44:25.503Z,32.28
2017-09-04T12:44:29.745Z,32.21
2017-09-04T12:44:33.954Z,32.13
2017-09-04T12:44:38.152Z,32.06
2017-09-04T12:44:42.476Z,31.97
2017-09-04T12:44:46.434Z,31.91
2017-09-04T12:44:50.277Z,31.84
2017-09-04T12:44:54.389Z,31.77
2017-09-04T12:44:58.614Z,31.7
2017-09-04T12:45:02.670Z,31.63
2017-09-04T12:45:06.878Z,31.55
2017-09-04T12:45:11.071Z,31.48
2017-09-04T12:45:15.034Z,31.42
2017-09-04T12:45:19.370Z,31.35
2017-09-04T12:45:23.439Z,31.28
2017-09-04T12:45:27.517Z,31.22
2017-09-04T12:45:31.737Z,31.16
2017-09-04T12:45:35.980Z,31.1
2017-09-04T12:45:39.821Z,31.04
2017-09-04T12:45:44.062Z,30.98
2017-09-04T12:45:48.145Z,30.92
2017-09-04T12:45:52.238Z,30.87
2017-09-04T12:45:56.071Z,30.83
2017-09-04T12:46:00.409Z,30.77
2017-09-04T12:46:04.829Z,30.73
2017-09-04T12:46:08.936Z,30.67
2017-09-04T12:46:13.143Z,30.62
2017-09-04T12:46:17.479Z,30.59
2017-09-04T12:46:21.818Z,30.55
2017-09-04T12:46:25.912Z,30.52
2017-09-04T12:46:29.899Z,30.5
2017-09-04T12:46:33.983Z,30.5
2017-09-04T12:46:38.438Z,30.53
2017-09-04T12:46:42.282Z,30.59
2017-09-04T12:46:46.371Z,30.65
2017-09-04T12:46:50.200Z,30.69
2017-09-04T12:46:54.274Z,30.7
2017-09-04T12:46:58.110Z,30.67
2017-09-04T12:47:02.318Z,30.63
2017-09-04T12:47:06.539Z,30.63
2017-09-04T12:47:10.757Z,30.7
2017-09-04T12:47:14.843Z,30.8
2017-09-04T12:47:19.054Z,30.94
2017-09-04T12:47:23.252Z,31.11
2017-09-04T12:47:27.472Z,31.28
2017-09-04T12:47:31.804Z,31.48
2017-09-04T12:47:35.791Z,31.65
2017-09-04T12:47:39.844Z,31.8
2017-09-04T12:47:44.067Z,31.94
2017-09-04T12:47:48.020Z,31.92
2017-09-04T12:47:52.471Z,31.85
2017-09-04T12:47:56.679Z,31.83
2017-09-04T12:48:01.031Z,31.77
2017-09-04T12:48:05.322Z,31.74
2017-09-04T12:48:09.283Z,31.65
2017-09-04T12:48:13.371Z,31.57
2017-09-04T12:48:17.693Z,31.5
2017-09-04T12:48:21.770Z,31.43
2017-09-04T12:48:25.987Z,31.35
2017-09-04T12:48:29.828Z,31.29
2017-09-04T12:48:34.034Z,31.24
2017-09-04T12:48:38.356Z,31.16
2017-09-04T12:48:42.326Z,31.1
2017-09-04T12:48:46.273Z,31.05
2017-09-04T12:48:50.105Z,30.99
2017-09-04T12:48:54.311Z,30.93
2017-09-04T12:48:58.265Z,30.88
2017-09-04T12:49:02.495Z,30.82
2017-09-04T12:49:06.588Z,30.77
2017-09-04T12:49:10.797Z,30.74
2017-09-04T12:49:15.019Z,30.69
2017-09-04T12:49:19.236Z,30.64
2017-09-04T12:49:23.452Z,30.61
2017-09-04T12:49:27.425Z,30.58
2017-09-04T12:49:31.378Z,30.57
2017-09-04T12:49:35.590Z,30.53
2017-09-04T12:49:40.035Z,30.51
2017-09-04T12:49:43.988Z,30.47
2017-09-04T12:49:47.959Z,30.42
2017-09-04T12:49:52.297Z,30.37
2017-09-04T12:49:56.369Z,30.32
2017-09-04T12:50:00.330Z,30.28
2017-09-04T12:50:04.556Z,30.23
2017-09-04T12:50:08.787Z,30.18
2017-09-04T12:50:12.627Z,30.14
2017-09-04T12:50:16.708Z,30.1
2017-09-04T12:50:20.906Z,30.05
2017-09-04T12:50:25.002Z,30
2017-09-04T12:50:29.081Z,29.96
2017-09-04T12:50:33.043Z,29.92
2017-09-04T12:50:37.124Z,29.89
2017-09-04T12:50:41.084Z,29.85
2017-09-04T12:50:45.296Z,29.82
2017-09-04T12:50:49.392Z,29.77
2017-09-04T12:50:53.721Z,29.74
2017-09-04T12:50:57.676Z,29.71
2017-09-04T12:51:02.183Z,29.67
2017-09-04T12:51:06.264Z,29.65
2017-09-04T12:51:10.468Z,29.64
2017-09-04T12:51:14.551Z,29.66
2017-09-04T12:51:18.749Z,29.69
2017-09-04T12:51:22.960Z,29.71
2017-09-04T12:51:27.053Z,29.71
2017-09-04T12:51:31.028Z,29.69
2017-09-04T12:51:35.111Z,29.66
2017-09-04T12:51:39.200Z,29.63
2017-09-04T12:51:43.410Z,29.6
2017-09-04T12:51:47.380Z,29.59
2017-09-04T12:51:51.461Z,29.58
2017-09-04T12:51:55.676Z,29.58
2017-09-04T12:51:59.772Z,29.61
2017-09-04T12:52:03.872Z,29.64
2017-09-04T12:52:07.964Z,29.7
2017-09-04T12:52:12.054Z,29.78
2017-09-04T12:52:16.265Z,29.9
2017-09-04T12:52:20.473Z,30.04
2017-09-04T12:52:24.681Z,30.21
2017-09-04T12:52:28.638Z,30.37
2017-09-04T12:52:32.633Z,30.54
2017-09-04T12:52:36.979Z,30.7
2017-09-04T12:52:41.319Z,30.87
2017-09-04T12:52:45.409Z,31.03
2017-09-04T12:52:49.768Z,31.18
2017-09-04T12:52:53.844Z,31.33
2017-09-04T12:52:57.921Z,31.48
2017-09-04T12:53:02.220Z,31.62
2017-09-04T12:53:06.425Z,31.77
2017-09-04T12:53:10.270Z,31.9
2017-09-04T12:53:14.610Z,32.04
2017-09-04T12:53:18.953Z,32.17
2017-09-04T12:53:23.175Z,32.3
2017-09-04T12:53:27.391Z,32.43
2017-09-04T12:53:31.476Z,32.55
2017-09-04T12:53:35.806Z,32.67
2017-09-04T12:53:40.010Z,32.8
2017-09-04T12:53:44.268Z,32.93
2017-09-04T12:53:48.477Z,33.06
2017-09-04T12:53:52.437Z,33.17
2017-09-04T12:53:56.498Z,33.29
2017-09-04T12:54:00.446Z,33.4
2017-09-04T12:54:04.632Z,33.5
2017-09-04T12:54:08.828Z,33.62
2017-09-04T12:54:13.159Z,33.73
2017-09-04T12:54:17.239Z,33.84
2017-09-04T12:54:21.461Z,33.94
2017-09-04T12:54:25.546Z,34.04
2017-09-04T12:54:29.746Z,34.14
2017-09-04T12:54:34.245Z,34.25
2017-09-04T12:54:38.457Z,34.35
2017-09-04T12:54:42.694Z,34.45
2017-09-04T12:54:46.542Z,34.55
2017-09-04T12:54:50.752Z,34.64
2017-09-04T12:54:54.709Z,34.73
2017-09-04T12:54:58.931Z,34.83
2017-09-04T12:55:03.011Z,34.91
2017-09-04T12:55:07.240Z,35.01
2017-09-04T12:55:11.214Z,35.08
2017-09-04T12:55:15.426Z,35.17
2017-09-04T12:55:19.495Z,35.26
2017-09-04T12:55:23.716Z,35.35
2017-09-04T12:55:27.934Z,35.43
2017-09-04T12:55:32.008Z,35.51
2017-09-04T12:55:36.085Z,35.59
2017-09-04T12:55:40.167Z,35.66
2017-09-04T12:55:44.508Z,35.75
2017-09-04T12:55:48.715Z,35.81
2017-09-04T12:55:52.936Z,35.9
2017-09-04T12:55:56.876Z,35.95
2017-09-04T12:56:00.706Z,35.99
2017-09-04T12:56:04.905Z,36.05
2017-09-04T12:56:08.989Z,36.12
2017-09-04T12:56:13.205Z,36.17
2017-09-04T12:56:17.289Z,36.25
2017-09-04T12:56:21.370Z,36.31
2017-09-04T12:56:25.201Z,36.38
2017-09-04T12:56:29.299Z,36.45
2017-09-04T12:56:33.380Z,36.51
2017-09-04T12:56:37.714Z,36.58
2017-09-04T12:56:42.039Z,36.66
2017-09-04T12:56:46.382Z,36.71
2017-09-04T12:56:50.586Z,36.77
2017-09-04T12:56:54.937Z,36.84
2017-09-04T12:56:59.144Z,36.92
2017-09-04T12:57:03.337Z,36.98
2017-09-04T12:57:07.416Z,37.03
2017-09-04T12:57:11.612Z,37.1
2017-09-04T12:57:15.826Z,37.16
2017-09-04T12:57:20.012Z,37.22
2017-09-04T12:57:24.216Z,37.29
2017-09-04T12:57:28.166Z,37.33
2017-09-04T12:57:32.376Z,37.39
2017-09-04T12:57:36.469Z,37.43
2017-09-04T12:57:40.536Z,37.49
2017-09-04T12:57:44.738Z,37.54
2017-09-04T12:57:48.705Z,37.59
2017-09-04T12:57:52.782Z,37.6
2017-09-04T12:57:57.247Z,37.53
2017-09-04T12:58:01.455Z,37.46
2017-09-04T12:58:05.421Z,37.46
2017-09-04T12:58:09.503Z,37.52
2017-09-04T12:58:13.597Z,37.58
2017-09-04T12:58:17.701Z,37.64
2017-09-04T12:58:21.670Z,37.69
2017-09-04T12:58:25.762Z,37.76
2017-09-04T12:58:29.982Z,37.83
2017-09-04T12:58:34.071Z,37.9
2017-09-04T12:58:38.280Z,37.98
2017-09-04T12:58:42.225Z,38.05
2017-09-04T12:58:46.303Z,38.11
2017-09-04T12:58:50.379Z,38.19
2017-09-04T12:58:54.452Z,38.27
2017-09-04T12:58:58.283Z,38.33
2017-09-04T12:59:02.239Z,38.41
2017-09-04T12:59:06.196Z,38.48
2017-09-04T12:59:10.398Z,38.56
2017-09-04T12:59:14.482Z,38.63
2017-09-04T12:59:18.197Z,38.7
2017-09-04T12:59:22.023Z,38.76
2017-09-04T12:59:26.102Z,38.83
2017-09-04T12:59:30.203Z,38.91
2017-09-04T12:59:34.277Z,38.98
2017-09-04T12:59:38.630Z,38.98
2017-09-04T12:59:42.834Z,39.01
2017-09-04T12:59:46.920Z,38.96
2017-09-04T12:59:50.627Z,38.88
2017-09-04T12:59:54.824Z,38.72
2017-09-04T12:59:58.915Z,38.56
2017-09-04T13:00:03.273Z,38.4
2017-09-04T13:00:07.240Z,38.25
2017-09-04T13:00:11.208Z,38.11
2017-09-04T13:00:15.176Z,37.99
2017-09-04T13:00:19.255Z,38
2017-09-04T13:00:23.468Z,38.11
2017-09-04T13:00:27.682Z,38.24
2017-09-04T13:00:32.262Z,38.37
2017-09-04T13:00:36.475Z,38.48
2017-09-04T13:00:40.671Z,38.59
2017-09-04T13:00:44.886Z,38.69
2017-09-04T13:00:49.346Z,38.79
2017-09-04T13:00:53.695Z,38.89
2017-09-04T13:00:57.657Z,38.98
2017-09-04T13:01:01.620Z,39.05
2017-09-04T13:01:05.698Z,39.15
2017-09-04T13:01:09.777Z,39.24
2017-09-04T13:01:13.849Z,39.32
2017-09-04T13:01:18.059Z,39.4
2017-09-04T13:01:22.008Z,39.49
2017-09-04T13:01:26.079Z,39.57
2017-09-04T13:01:30.162Z,39.65
2017-09-04T13:01:34.123Z,39.73
2017-09-04T13:01:37.969Z,39.81
2017-09-04T13:01:41.930Z,39.88
2017-09-04T13:01:46.023Z,39.96
2017-09-04T13:01:49.977Z,40.03
2017-09-04T13:01:54.182Z,40.11
2017-09-04T13:01:58.379Z,40.19
2017-09-04T13:02:02.787Z,40.26
2017-09-04T13:02:07.137Z,40.35
2017-09-04T13:02:11.338Z,40.43
2017-09-04T13:02:15.179Z,40.49
2017-09-04T13:02:19.513Z,40.58
2017-09-04T13:02:23.734Z,40.64
2017-09-04T13:02:27.700Z,40.72
2017-09-04T13:02:31.901Z,40.79
2017-09-04T13:02:36.085Z,40.86
2017-09-04T13:02:40.312Z,40.92
2017-09-04T13:02:44.514Z,40.98
2017-09-04T13:02:48.722Z,41.07
2017-09-04T13:02:52.927Z,41.13
2017-09-04T13:02:56.893Z,41.2
2017-09-04T13:03:00.868Z,41.27
2017-09-04T13:03:04.821Z,41.32
2017-09-04T13:03:08.898Z,41.39
2017-09-04T13:03:13.220Z,41.46
2017-09-04T13:03:17.429Z,41.53
2017-09-04T13:03:21.778Z,41.59
2017-09-04T13:03:25.866Z,41.65
2017-09-04T13:03:29.811Z,41.72
2017-09-04T13:03:34.134Z,41.78
2017-09-04T13:03:38.093Z,41.83
2017-09-04T13:03:42.195Z,41.88
2017-09-04T13:03:46.529Z,41.95
2017-09-04T13:03:50.736Z,42.01
2017-09-04T13:03:54.825Z,42.05
2017-09-04T13:03:58.913Z,42.11
2017-09-04T13:04:03.326Z,42.18
2017-09-04T13:04:07.662Z,42.23
2017-09-04T13:04:11.737Z,42.28
2017-09-04T13:04:16.092Z,42.34
2017-09-04T13:04:20.287Z,42.4
2017-09-04T13:04:24.109Z,42.45
2017-09-04T13:04:28.316Z,42.49
2017-09-04T13:04:32.417Z,42.54
2017-09-04T13:04:36.369Z,42.59
2017-09-04T13:04:40.445Z,42.63
2017-09-04T13:04:44.650Z,42.68
2017-09-04T13:04:48.597Z,42.73
2017-09-04T13:04:52.690Z,42.77
2017-09-04T13:04:56.658Z,42.82
2017-09-04T13:05:00.613Z,42.86
2017-09-04T13:05:04.698Z,42.92
2017-09-04T13:05:08.913Z,42.96
2017-09-04T13:05:13.242Z,43.02
2017-09-04T13:05:17.329Z,43.06
2017-09-04T13:05:21.538Z,43.09
2017-09-04T13:05:25.616Z,43.14
2017-09-04T13:05:30.135Z,43.18
2017-09-04T13:05:34.106Z,43.22
2017-09-04T13:05:38.324Z,43.26
2017-09-04T13:05:42.396Z,43.3
2017-09-04T13:05:46.227Z,43.35
2017-09-04T13:05:50.437Z,43.4
2017-09-04T13:05:54.786Z,43.43
2017-09-04T13:05:58.874Z,43.48
2017-09-04T13:06:03.092Z,43.53
2017-09-04T13:06:07.420Z,43.58
2017-09-04T13:06:11.672Z,43.63
2017-09-04T13:06:15.882Z,43.68
2017-09-04T13:06:19.972Z,43.73
2017-09-04T13:06:24.186Z,43.77
2017-09-04T13:06:28.537Z,43.82
2017-09-04T13:06:32.866Z,43.87
2017-09-04T13:06:36.963Z,43.92
2017-09-04T13:06:41.055Z,43.97
2017-09-04T13:06:44.991Z,44.02
2017-09-04T13:06:49.073Z,44.07
2017-09-04T13:06:53.270Z,44.13
2017-09-04T13:06:57.107Z,44.18
2017-09-04T13:07:01.331Z,44.23
2017-09-04T13:07:05.291Z,44.29
2017-09-04T13:07:09.364Z,44.35
2017-09-04T13:07:13.572Z,44.4
2017-09-04T13:07:17.795Z,44.46
2017-09-04T13:07:21.866Z,44.51
2017-09-04T13:07:25.936Z,44.56
2017-09-04T13:07:30.017Z,44.62
2017-09-04T13:07:34.105Z,44.68
2017-09-04T13:07:38.195Z,44.73
2017-09-04T13:07:42.404Z,44.78
2017-09-04T13:07:46.391Z,44.84
2017-09-04T13:07:50.497Z,44.88
2017-09-04T13:07:54.576Z,44.93
2017-09-04T13:07:58.783Z,44.98
2017-09-04T13:08:03.349Z,45.03
2017-09-04T13:08:07.435Z,45.07
2017-09-04T13:08:11.517Z,45.11
2017-09-04T13:08:15.470Z,45.15
2017-09-04T13:08:19.800Z,45.19
2017-09-04T13:08:24.133Z,45.24
2017-09-04T13:08:28.171Z,45.27
2017-09-04T13:08:32.132Z,45.32
2017-09-04T13:08:36.221Z,45.34
2017-09-04T13:08:40.177Z,45.37
2017-09-04T13:08:44.506Z,45.42
2017-09-04T13:08:48.472Z,45.45
2017-09-04T13:08:52.548Z,45.5
2017-09-04T13:08:56.883Z,45.53
2017-09-04T13:09:01.097Z,45.58
2017-09-04T13:09:05.397Z,45.63
2017-09-04T13:09:09.490Z,45.67
2017-09-04T13:09:13.816Z,45.71
2017-09-04T13:09:18.028Z,45.76
2017-09-04T13:09:22.244Z,45.8
2017-09-04T13:09:26.331Z,45.83
2017-09-04T13:09:30.681Z,45.88
2017-09-04T13:09:35.011Z,45.91
2017-09-04T13:09:39.093Z,45.97
2017-09-04T13:09:43.177Z,46.01
2017-09-04T13:09:47.249Z,46.05
2017-09-04T13:09:51.337Z,46.09
2017-09-04T13:09:55.166Z,46.13
2017-09-04T13:09:59.366Z,46.17
2017-09-04T13:10:03.449Z,46.2
2017-09-04T13:10:07.410Z,46.24
2017-09-04T13:10:11.621Z,46.28
2017-09-04T13:10:15.823Z,46.3
2017-09-04T13:10:20.029Z,46.26
2017-09-04T13:10:24.106Z,46.26
2017-09-04T13:10:28.196Z,46.21
2017-09-04T13:10:32.272Z,46.1
2017-09-04T13:10:36.240Z,45.98
2017-09-04T13:10:40.453Z,45.87
2017-09-04T13:10:44.783Z,45.82
2017-09-04T13:10:48.862Z,45.81
2017-09-04T13:10:53.066Z,45.7
2017-09-04T13:10:57.156Z,45.63
2017-09-04T13:11:01.239Z,45.53
2017-09-04T13:11:05.365Z,45.4
2017-09-04T13:11:09.341Z,45.34
2017-09-04T13:11:13.558Z,45.35
2017-09-04T13:11:17.779Z,45.27
2017-09-04T13:11:21.857Z,45.11
2017-09-04T13:11:25.822Z,44.96
2017-09-04T13:11:30.028Z,44.8
2017-09-04T13:11:33.872Z,44.66
2017-09-04T13:11:37.960Z,44.5
2017-09-04T13:11:42.423Z,44.34
2017-09-04T13:11:46.497Z,44.19
2017-09-04T13:11:50.596Z,44.06
2017-09-04T13:11:54.437Z,43.93
2017-09-04T13:11:58.266Z,43.8
2017-09-04T13:12:02.224Z,43.69
2017-09-04T13:12:06.306Z,43.57
2017-09-04T13:12:10.248Z,43.45
2017-09-04T13:12:14.716Z,43.32
2017-09-04T13:12:19.047Z,43.2
2017-09-04T13:12:23.266Z,43.08
2017-09-04T13:12:27.473Z,42.95
2017-09-04T13:12:31.546Z,42.85
2017-09-04T13:12:35.766Z,42.73
2017-09-04T13:12:39.753Z,42.61
2017-09-04T13:12:43.966Z,42.51
2017-09-04T13:12:48.056Z,42.41
2017-09-04T13:12:52.018Z,42.31
2017-09-04T13:12:56.094Z,42.2
2017-09-04T13:13:00.168Z,42.1
2017-09-04T13:13:04.129Z,42
2017-09-04T13:13:08.215Z,41.91
2017-09-04T13:13:12.554Z,41.82
2017-09-04T13:13:16.637Z,41.73
2017-09-04T13:13:20.594Z,41.65
2017-09-04T13:13:24.933Z,41.58
2017-09-04T13:13:29.009Z,41.49
2017-09-04T13:13:33.231Z,41.4
2017-09-04T13:13:37.443Z,41.32
2017-09-04T13:13:41.402Z,41.25
2017-09-04T13:13:45.371Z,41.18
2017-09-04T13:13:49.199Z,41.11
2017-09-04T13:13:53.158Z,41.03
2017-09-04T13:13:57.256Z,40.97
2017-09-04T13:14:01.216Z,40.9
2017-09-04T13:14:05.425Z,40.82
2017-09-04T13:14:09.527Z,40.74
2017-09-04T13:14:13.627Z,40.66
2017-09-04T13:14:17.467Z,40.61
2017-09-04T13:14:21.430Z,40.54
2017-09-04T13:14:25.263Z,40.48
2017-09-04T13:14:29.508Z,40.42
2017-09-04T13:14:33.702Z,40.35
2017-09-04T13:14:37.794Z,40.29
2017-09-04T13:14:41.765Z,40.22
2017-09-04T13:14:45.608Z,40.17
2017-09-04T13:14:49.577Z,40.11
2017-09-04T13:14:53.789Z,40.05
2017-09-04T13:14:58.002Z,40.01
2017-09-04T13:15:02.691Z,39.96
2017-09-04T13:15:06.776Z,39.91
2017-09-04T13:15:10.610Z,39.87
2017-09-04T13:15:14.829Z,39.87
2017-09-04T13:15:18.801Z,39.9
2017-09-04T13:15:22.902Z,39.97
2017-09-04T13:15:26.861Z,40.1
2017-09-04T13:15:31.067Z,40.25
2017-09-04T13:15:35.532Z,40.39
2017-09-04T13:15:39.623Z,40.51
2017-09-04T13:15:43.571Z,40.55
2017-09-04T13:15:47.654Z,40.61
2017-09-04T13:15:51.726Z,40.7
2017-09-04T13:15:55.933Z,40.84
2017-09-04T13:16:00.025Z,40.88
2017-09-04T13:16:04.226Z,40.71
2017-09-04T13:16:08.323Z,40.59
2017-09-04T13:16:12.533Z,40.45
2017-09-04T13:16:16.986Z,40.31
2017-09-04T13:16:20.947Z,40.17
2017-09-04T13:16:25.032Z,40.05
2017-09-04T13:16:29.118Z,39.94
2017-09-04T13:16:33.449Z,39.83
2017-09-04T13:16:37.534Z,39.7
2017-09-04T13:16:41.519Z,39.59
2017-09-04T13:16:45.464Z,39.49
2017-09-04T13:16:49.304Z,39.38
2017-09-04T13:16:53.644Z,39.27
2017-09-04T13:16:57.481Z,39.17
2017-09-04T13:17:01.816Z,39.05
2017-09-04T13:17:05.769Z,38.95
2017-09-04T13:17:09.846Z,38.85
2017-09-04T13:17:13.938Z,38.74
2017-09-04T13:17:17.894Z,38.65
2017-09-04T13:17:21.972Z,38.55
2017-09-04T13:17:25.934Z,38.45
2017-09-04T13:17:29.900Z,38.36
2017-09-04T13:17:33.739Z,38.26
2017-09-04T13:17:37.713Z,38.17
2017-09-04T13:17:41.932Z,38.06
2017-09-04T13:17:46.126Z,37.97
2017-09-04T13:17:49.961Z,37.88
2017-09-04T13:17:53.669Z,37.79
2017-09-04T13:17:57.991Z,37.7
2017-09-04T13:18:02.363Z,37.61
2017-09-04T13:18:06.321Z,37.52
2017-09-04T13:18:10.282Z,37.43
2017-09-04T13:18:14.243Z,37.4
2017-09-04T13:18:18.333Z,37.32
2017-09-04T13:18:22.300Z,37.24
2017-09-04T13:18:26.520Z,37.15
2017-09-04T13:18:30.735Z,37.08
2017-09-04T13:18:34.823Z,36.98
2017-09-04T13:18:39.171Z,36.9
2017-09-04T13:18:43.135Z,36.8
2017-09-04T13:18:47.092Z,36.73
2017-09-04T13:18:51.176Z,36.64
2017-09-04T13:18:55.136Z,36.56
2017-09-04T13:18:59.487Z,36.46
2017-09-04T13:19:03.832Z,36.37
2017-09-04T13:19:07.667Z,36.29
2017-09-04T13:19:11.890Z,36.2
2017-09-04T13:19:16.101Z,36.12
2017-09-04T13:19:20.301Z,36.04
2017-09-04T13:19:24.239Z,35.96
2017-09-04T13:19:28.323Z,35.88
2017-09-04T13:19:32.423Z,35.79
2017-09-04T13:19:36.390Z,35.71
2017-09-04T13:19:40.469Z,35.64
2017-09-04T13:19:44.421Z,35.58
2017-09-04T13:19:48.376Z,35.5
2017-09-04T13:19:52.719Z,35.43
2017-09-04T13:19:56.686Z,35.36
2017-09-04T13:20:00.763Z,35.28
2017-09-04T13:20:04.963Z,35.21
2017-09-04T13:20:09.042Z,35.14
2017-09-04T13:20:12.992Z,35.07
2017-09-04T13:20:17.076Z,35.01
2017-09-04T13:20:21.152Z,34.95
2017-09-04T13:20:25.099Z,34.87
2017-09-04T13:20:29.439Z,34.82
2017-09-04T13:20:33.409Z,34.75
2017-09-04T13:20:37.491Z,34.7
2017-09-04T13:20:41.573Z,34.62
2017-09-04T13:20:45.787Z,34.57
2017-09-04T13:20:49.872Z,34.51
2017-09-04T13:20:54.214Z,34.45
2017-09-04T13:20:58.324Z,34.38
2017-09-04T13:21:02.689Z,34.32
2017-09-04T13:21:07.154Z,34.25
2017-09-04T13:21:11.494Z,34.18
2017-09-04T13:21:15.829Z,34.14
2017-09-04T13:21:19.902Z,34.07
2017-09-04T13:21:24.119Z,34.01
2017-09-04T13:21:28.081Z,33.95
2017-09-04T13:21:32.298Z,33.9
2017-09-04T13:21:36.753Z,33.84
2017-09-04T13:21:40.713Z,33.79
2017-09-04T13:21:44.808Z,33.73
2017-09-04T13:21:49.035Z,33.68
2017-09-04T13:21:53.009Z,33.63
2017-09-04T13:21:56.964Z,33.57
2017-09-04T13:22:01.182Z,33.54
2017-09-04T13:22:05.287Z,33.49
2017-09-04T13:22:09.245Z,33.45
2017-09-04T13:22:13.065Z,33.41
2017-09-04T13:22:17.269Z,33.37
2017-09-04T13:22:21.228Z,33.35
2017-09-04T13:22:25.200Z,33.36
2017-09-04T13:22:29.392Z,33.43
2017-09-04T13:22:33.486Z,33.56
2017-09-04T13:22:37.436Z,33.73
2017-09-04T13:22:41.520Z,33.89
2017-09-04T13:22:45.717Z,34.07
2017-09-04T13:22:49.805Z,34.25
2017-09-04T13:22:53.764Z,34.39
2017-09-04T13:22:57.599Z,34.43
2017-09-04T13:23:01.679Z,34.37
2017-09-04T13:23:05.646Z,34.27
2017-09-04T13:23:09.735Z,34.16
2017-09-04T13:23:13.816Z,34.06
2017-09-04T13:23:18.032Z,33.97
2017-09-04T13:23:21.987Z,33.88
2017-09-04T13:23:25.943Z,33.79
2017-09-04T13:23:30.156Z,33.72
2017-09-04T13:23:34.132Z,33.66
2017-09-04T13:23:38.219Z,33.63
2017-09-04T13:23:42.304Z,33.73
2017-09-04T13:23:46.512Z,33.91
2017-09-04T13:23:50.349Z,34.08
2017-09-04T13:23:54.428Z,34.21
2017-09-04T13:23:58.247Z,34.36
2017-09-04T13:24:02.691Z,34.51
2017-09-04T13:24:06.774Z,34.66
2017-09-04T13:24:10.743Z,34.8
2017-09-04T13:24:14.825Z,34.93
2017-09-04T13:24:18.891Z,35.05
2017-09-04T13:24:23.360Z,35.19
2017-09-04T13:24:27.438Z,35.3
2017-09-04T13:24:31.652Z,35.31
2017-09-04T13:24:35.607Z,35.31
2017-09-04T13:24:39.712Z,35.4
2017-09-04T13:24:43.834Z,35.47
2017-09-04T13:24:47.920Z,35.6
2017-09-04T13:24:51.993Z,35.72
2017-09-04T13:24:55.943Z,35.83
2017-09-04T13:25:00.027Z,35.94
2017-09-04T13:25:04.476Z,36.06
2017-09-04T13:25:08.692Z,36.17
2017-09-04T13:25:13.033Z,36.3
2017-09-04T13:25:17.118Z,36.4
2017-09-04T13:25:21.337Z,36.52
2017-09-04T13:25:25.416Z,36.62
2017-09-04T13:25:29.632Z,36.71
2017-09-04T13:25:33.975Z,36.71
2017-09-04T13:25:38.320Z,36.7
2017-09-04T13:25:42.412Z,36.72
2017-09-04T13:25:46.364Z,36.72
2017-09-04T13:25:50.443Z,36.71
2017-09-04T13:25:54.535Z,36.77
2017-09-04T13:25:58.619Z,36.87
2017-09-04T13:26:02.828Z,36.97
2017-09-04T13:26:06.788Z,37.06
2017-09-04T13:26:10.755Z,37.14
2017-09-04T13:26:14.835Z,37.24
2017-09-04T13:26:19.038Z,37.33
2017-09-04T13:26:23.121Z,37.41
2017-09-04T13:26:27.114Z,37.5
2017-09-04T13:26:31.221Z,37.57
2017-09-04T13:26:35.436Z,37.64
2017-09-04T13:26:39.892Z,37.73
2017-09-04T13:26:44.091Z,37.8
2017-09-04T13:26:48.183Z,37.87
2017-09-04T13:26:52.384Z,37.94
2017-09-04T13:26:56.711Z,38.02
2017-09-04T13:27:00.797Z,38.09
2017-09-04T13:27:04.746Z,38.16
2017-09-04T13:27:08.838Z,38.23
2017-09-04T13:27:13.047Z,38.3
2017-09-04T13:27:17.413Z,38.36
2017-09-04T13:27:21.497Z,38.41
2017-09-04T13:27:25.317Z,38.47
2017-09-04T13:27:29.405Z,38.54
2017-09-04T13:27:33.113Z,38.59
2017-09-04T13:27:37.462Z,38.66
2017-09-04T13:27:41.799Z,38.71
2017-09-04T13:27:45.877Z,38.76
2017-09-04T13:27:49.850Z,38.82
2017-09-04T13:27:54.069Z,38.88
2017-09-04T13:27:58.416Z,38.93
2017-09-04T13:28:02.626Z,38.99
2017-09-04T13:28:06.961Z,39.05
2017-09-04T13:28:10.784Z,39.09
2017-09-04T13:28:14.867Z,39.14
2017-09-04T13:28:18.823Z,39.19
2017-09-04T13:28:22.913Z,39.24
2017-09-04T13:28:27.003Z,39.3
2017-09-04T13:28:30.976Z,39.35
2017-09-04T13:28:34.942Z,39.39
2017-09-04T13:28:39.141Z,39.46
2017-09-04T13:28:43.357Z,39.51
2017-09-04T13:28:47.186Z,39.56
2017-09-04T13:28:51.514Z,39.61
2017-09-04T13:28:55.704Z,39.65
2017-09-04T13:28:59.796Z,39.7
2017-09-04T13:29:04.012Z,39.76
2017-09-04T13:29:08.219Z,39.8
2017-09-04T13:29:12.410Z,39.77
2017-09-04T13:29:16.891Z,39.64
2017-09-04T13:29:20.988Z,39.44
2017-09-04T13:29:25.244Z,39.23
2017-09-04T13:29:29.206Z,39.08
2017-09-04T13:29:33.405Z,38.9
2017-09-04T13:29:37.607Z,38.74
2017-09-04T13:29:41.570Z,38.6
2017-09-04T13:29:46.037Z,38.47
2017-09-04T13:29:50.017Z,38.34
2017-09-04T13:29:54.111Z,38.25
2017-09-04T13:29:58.204Z,38.21
2017-09-04T13:30:02.666Z,38.26
2017-09-04T13:30:06.754Z,38.35
2017-09-04T13:30:10.853Z,38.44
2017-09-04T13:30:15.072Z,38.51
2017-09-04T13:30:19.155Z,38.54
2017-09-04T13:30:23.115Z,38.61
2017-09-04T13:30:27.617Z,38.68
2017-09-04T13:30:31.832Z,38.75
2017-09-04T13:30:35.785Z,38.8
2017-09-04T13:30:40.009Z,38.87
2017-09-04T13:30:44.236Z,38.92
2017-09-04T13:30:48.444Z,38.93
2017-09-04T13:30:52.525Z,38.81
2017-09-04T13:30:56.493Z,38.69
2017-09-04T13:31:00.580Z,38.56
2017-09-04T13:31:04.937Z,38.47
2017-09-04T13:31:09.030Z,38.53
2017-09-04T13:31:12.986Z,38.57
2017-09-04T13:31:17.073Z,38.62
2017-09-04T13:31:21.172Z,38.6
2017-09-04T13:31:25.267Z,38.51
2017-09-04T13:31:29.484Z,38.51
2017-09-04T13:31:33.803Z,38.57
2017-09-04T13:31:37.745Z,38.61
2017-09-04T13:31:41.828Z,38.68
2017-09-04T13:31:45.902Z,38.73
2017-09-04T13:31:49.990Z,38.78
2017-09-04T13:31:53.942Z,38.83
2017-09-04T13:31:58.281Z,38.89
2017-09-04T13:32:02.492Z,38.93
2017-09-04T13:32:06.585Z,38.95
2017-09-04T13:32:10.524Z,38.98
2017-09-04T13:32:14.629Z,39.03
2017-09-04T13:32:18.873Z,39.07
2017-09-04T13:32:23.074Z,39.12
2017-09-04T13:32:27.164Z,39.17
2017-09-04T13:32:31.267Z,39.21
2017-09-04T13:32:35.490Z,39.25
2017-09-04T13:32:39.707Z,39.3
2017-09-04T13:32:43.926Z,39.34
2017-09-04T13:32:48.393Z,39.39
2017-09-04T13:32:52.366Z,39.45
2017-09-04T13:32:56.564Z,39.49
2017-09-04T13:33:00.630Z,39.53
2017-09-04T13:33:05.258Z,39.58
2017-09-04T13:33:09.230Z,39.63
2017-09-04T13:33:13.432Z,39.67
2017-09-04T13:33:17.390Z,39.71
2017-09-04T13:33:21.351Z,39.77
2017-09-04T13:33:25.433Z,39.81
2017-09-04T13:33:29.639Z,39.86
2017-09-04T13:33:33.736Z,39.9
2017-09-04T13:33:37.710Z,39.94
2017-09-04T13:33:41.538Z,39.99